Remsenburg, New York
Current Conditions -  °F | °C
As of 3:53 AM on Saturday 20 Dec 2014 (Local Time) from KFOK Reporting Station
Overcast Overcast  
Wind Chill: 25°   Ceiling: 2600
Heat Index: 32°   Visibility: 10mi
Dew Point: 22°   Wind: 8mph
Humidity: 66%   Direction: 10°N
Pressure: 30.2"   Gusts: NA
Location:  40.81°N, 72.71°W
Report Text: KFOK 200853Z AUTO 01007KT 10SM OVC026 00/M06 A3020 RMK AO2 SLP228 T00001056 53004 TSNO
Loading
Personal Weather Stations






























Interactive Weather Map New forecast layout! Learn more

10-Day Weather Forecast

Advertisements
Track Severe Weather on mobile